Time;durP1;ratioP1;P1;durP2;ratioP2;P2;SDS_P1;SDS_P2;PMS_P1;PMS_P2;Temp;Humidity;BMP_temperature;BMP_pressure;BME280_temperature;BME280_humidity;BME280_pressure;Samples;Min_cycle;Max_cycle;Signal;HPM_P1;HPM_P2
2021/04/21 00:01:39;;;;;;;48.90;32.27;;;9.20;99.90;;;;;;4994184;28;20665;-63
2021/04/21 00:04:09;;;;;;;42.37;30.53;;;9.30;99.90;;;;;;5012290;28;20213;-63
2021/04/21 00:06:36;;;;;;;51.63;31.93;;;9.30;99.90;;;;;;4997880;28;20268;-64
2021/04/21 00:09:05;;;;;;;44.00;30.03;;;9.40;99.90;;;;;;4994359;28;20184;-63
2021/04/21 00:11:32;;;;;;;42.13;28.20;;;9.40;99.90;;;;;;5008497;28;20732;-63
2021/04/21 00:13:58;;;;;;;44.73;29.03;;;9.50;99.90;;;;;;5013769;28;20658;-64
2021/04/21 00:16:24;;;;;;;41.90;28.77;;;9.50;99.90;;;;;;5000069;28;20196;-63
2021/04/21 00:18:50;;;;;;;47.33;31.67;;;9.60;99.90;;;;;;4993594;28;20185;-62
2021/04/21 00:21:16;;;;;;;53.23;30.13;;;9.60;99.90;;;;;;5005268;28;20210;-64
2021/04/21 00:23:43;;;;;;;49.10;32.10;;;9.60;99.90;;;;;;5013420;28;20339;-64
2021/04/21 00:26:17;;;;;;;46.80;31.47;;;9.60;99.90;;;;;;5002778;28;20176;-64
2021/04/21 00:28:43;;;;;;;40.67;30.50;;;9.50;99.90;;;;;;4994046;28;20165;-64
2021/04/21 00:31:12;;;;;;;45.97;30.93;;;9.50;99.90;;;;;;5003083;28;20668;-64
2021/04/21 00:33:39;;;;;;;49.73;31.53;;;9.40;99.90;;;;;;5006042;28;20662;-63
2021/04/21 00:36:06;;;;;;;50.17;31.83;;;9.30;99.90;;;;;;4993936;28;20856;-63
2021/04/21 00:38:35;;;;;;;47.30;33.80;;;9.10;99.90;;;;;;4999326;28;20176;-63
2021/04/21 00:41:19;;;;;;;48.17;32.87;;;9.00;99.90;;;;;;5013033;28;20258;-63
2021/04/21 00:44:10;;;;;;;51.57;34.80;;;9.00;99.90;;;;;;4974190;28;20197;-64
2021/04/21 00:46:44;;;;;;;55.03;37.07;;;9.00;99.90;;;;;;4978272;28;20187;-62
2021/04/21 00:49:14;;;;;;;50.30;35.23;;;8.90;99.90;;;;;;5013244;28;20176;-63
2021/04/21 00:51:48;;;;;;;50.37;33.33;;;8.80;99.90;;;;;;5009496;28;20188;-63
2021/04/21 00:54:50;;;;;;;49.13;33.70;;;8.70;99.90;;;;;;4992840;28;20540;-64
2021/04/21 00:57:42;;;;;;;53.63;34.13;;;8.70;99.90;;;;;;4999248;28;20198;-63
2021/04/21 01:00:12;;;;;;;56.20;35.53;;;8.60;99.90;;;;;;5005495;28;20271;-63
2021/04/21 01:02:51;;;;;;;55.70;37.60;;;8.60;99.90;;;;;;4993367;28;20173;-64
2021/04/21 01:05:21;;;;;;;52.67;36.07;;;8.60;99.90;;;;;;5000559;28;20195;-63
2021/04/21 01:07:49;;;;;;;56.33;36.53;;;8.50;99.90;;;;;;5012947;28;20234;-63
2021/04/21 01:10:17;;;;;;;59.23;37.50;;;8.50;99.90;;;;;;5005263;28;20173;-63
2021/04/21 01:12:48;;;;;;;55.27;36.73;;;8.60;99.90;;;;;;4993139;28;20175;-64
2021/04/21 01:15:16;;;;;;;55.50;35.83;;;8.50;99.90;;;;;;4998817;28;20570;-64
2021/04/21 01:17:44;;;;;;;53.40;37.37;;;8.50;99.90;;;;;;5013030;28;20656;-63
2021/04/21 01:20:16;;;;;;;53.10;34.37;;;8.50;99.90;;;;;;5006860;28;20181;-64
2021/04/21 01:22:47;;;;;;;56.13;37.90;;;8.50;99.90;;;;;;4992935;28;20177;-64
2021/04/21 01:25:28;;;;;;;57.63;36.37;;;8.50;99.90;;;;;;4996409;28;20266;-63
2021/04/21 01:28:08;;;;;;;58.00;37.77;;;8.50;99.90;;;;;;5007399;28;20220;-64
2021/04/21 01:30:39;;;;;;;60.90;38.27;;;8.50;99.90;;;;;;4991518;28;20183;-64
2021/04/21 01:33:11;;;;;;;52.13;35.43;;;8.50;99.90;;;;;;4997269;28;20219;-64
2021/04/21 01:35:37;;;;;;;59.73;38.67;;;8.50;99.90;;;;;;5012285;28;20192;-64
2021/04/21 01:38:04;;;;;;;58.60;35.73;;;8.50;99.90;;;;;;5007989;28;20239;-63
2021/04/21 01:40:35;;;;;;;50.97;35.77;;;8.50;99.90;;;;;;4991978;28;20200;-63
2021/04/21 01:43:09;;;;;;;52.90;36.83;;;8.50;99.90;;;;;;4995155;28;20188;-63
2021/04/21 01:45:36;;;;;;;56.97;37.07;;;8.50;99.90;;;;;;5011869;28;20188;-64
2021/04/21 01:48:10;;;;;;;57.43;34.80;;;8.50;99.90;;;;;;5009475;28;20176;-62
2021/04/21 01:50:36;;;;;;;62.33;37.83;;;8.50;99.90;;;;;;4992297;28;20198;-63
2021/04/21 01:53:15;;;;;;;55.47;38.23;;;8.50;99.90;;;;;;4994094;28;20177;-63
2021/04/21 01:55:56;;;;;;;56.00;37.70;;;8.50;99.90;;;;;;5010312;28;20208;-64
2021/04/21 01:58:33;;;;;;;59.53;38.53;;;8.50;99.90;;;;;;5007804;28;20191;-65
2021/04/21 02:01:10;;;;;;;62.90;41.17;;;8.60;99.90;;;;;;4992115;28;20239;-65
2021/04/21 02:03:36;;;;;;;57.37;37.70;;;8.40;99.90;;;;;;4997329;28;20180;-65
2021/04/21 02:06:32;;;;;;;62.70;39.87;;;8.50;99.90;;;;;;5012036;28;20642;-64
2021/04/21 02:09:04;;;;;;;57.67;37.83;;;8.60;99.90;;;;;;5004114;28;20658;-65
2021/04/21 02:11:34;;;;;;;70.37;39.23;;;8.60;99.90;;;;;;4991743;28;20177;-64
2021/04/21 02:14:20;;;;;;;57.77;37.30;;;8.60;99.90;;;;;;4998820;28;20617;-65
2021/04/21 02:17:10;;;;;;;59.50;39.03;;;8.70;99.90;;;;;;5011720;28;20176;-65
2021/04/21 02:20:10;;;;;;;62.93;38.80;;;8.80;99.90;;;;;;5000410;28;20191;-65
2021/04/21 02:22:48;;;;;;;70.47;39.33;;;8.80;99.90;;;;;;4972522;28;20182;-65
2021/04/21 02:25:37;;;;;;;58.80;37.07;;;8.80;99.90;;;;;;4991170;28;20325;-65
2021/04/21 02:28:15;;;;;;;59.23;38.53;;;8.90;99.90;;;;;;4991897;28;20200;-65
2021/04/21 02:31:08;;;;;;;62.03;39.27;;;9.00;99.90;;;;;;4972190;28;20199;-65
2021/04/21 02:33:44;;;;;;;53.63;37.30;;;9.00;99.90;;;;;;4978332;28;20907;-65
2021/04/21 02:36:20;;;;;;;62.73;39.90;;;9.10;99.90;;;;;;5011737;28;20242;-65
2021/04/21 02:38:53;;;;;;;67.73;40.67;;;9.10;99.90;;;;;;5007712;28;20180;-63
2021/04/21 02:41:47;;;;;;;66.50;39.77;;;9.00;99.90;;;;;;4991966;28;20201;-65
2021/04/21 02:44:56;;;;;;;64.37;40.67;;;9.00;99.90;;;;;;5014805;28;20350;-65
2021/04/21 02:47:35;;;;;;;62.53;41.07;;;9.00;99.90;;;;;;5006872;28;20601;-64
2021/04/21 02:50:14;;;;;;;65.73;42.97;;;9.00;99.90;;;;;;4995542;28;20248;-64
2021/04/21 02:53:06;;;;;;;69.87;42.47;;;9.00;99.90;;;;;;4996873;28;20172;-64
2021/04/21 02:56:07;;;;;;;63.77;43.33;;;9.10;99.90;;;;;;4987242;28;20220;-64
2021/04/21 02:59:04;;;;;;;66.57;42.63;;;9.10;99.90;;;;;;5012915;28;20179;-65
2021/04/21 03:01:44;;;;;;;69.23;41.60;;;9.20;99.90;;;;;;5013382;28;20286;-64
2021/04/21 03:04:19;;;;;;;69.90;44.53;;;9.30;99.90;;;;;;4995394;28;20181;-64
2021/04/21 03:06:49;;;;;;;67.03;42.37;;;9.20;99.90;;;;;;4997961;28;20180;-65
2021/04/21 03:09:18;;;;;;;62.10;40.83;;;9.30;99.90;;;;;;5014043;28;20183;-64
2021/04/21 03:11:46;;;;;;;55.67;37.60;;;9.30;99.90;;;;;;5012563;28;20172;-65
2021/04/21 03:14:21;;;;;;;55.70;37.57;;;9.30;99.90;;;;;;4995044;28;20674;-64
2021/04/21 03:16:50;;;;;;;52.20;36.63;;;9.40;99.90;;;;;;4996738;28;20226;-64
2021/04/21 03:19:25;;;;;;;51.40;37.43;;;9.40;99.90;;;;;;5014401;28;20607;-64
2021/04/21 03:21:58;;;;;;;55.73;37.70;;;9.40;99.90;;;;;;4975455;28;20197;-65
2021/04/21 03:24:27;;;;;;;60.37;40.17;;;9.50;99.90;;;;;;4976191;28;20205;-64
2021/04/21 03:26:58;;;;;;;56.43;37.47;;;9.60;99.90;;;;;;5014609;28;20177;-64
2021/04/21 03:29:32;;;;;;;53.33;36.87;;;9.70;99.90;;;;;;5014534;28;20550;-64
2021/04/21 03:32:02;;;;;;;57.20;36.23;;;9.70;99.90;;;;;;4975087;28;20182;-65
2021/04/21 03:34:28;;;;;;;54.43;36.33;;;9.60;99.90;;;;;;4975491;28;20200;-65
2021/04/21 03:36:55;;;;;;;54.23;36.37;;;9.50;99.90;;;;;;5013902;28;20180;-64
2021/04/21 03:39:21;;;;;;;54.47;38.77;;;9.50;99.90;;;;;;5014694;28;20176;-64
2021/04/21 03:41:46;;;;;;;55.93;37.87;;;9.50;99.90;;;;;;4996535;28;20193;-64
2021/04/21 03:44:13;;;;;;;54.50;37.43;;;9.50;99.90;;;;;;4994696;28;20203;-64
2021/04/21 03:46:41;;;;;;;56.77;37.60;;;9.50;99.90;;;;;;5010017;28;20214;-64
2021/04/21 03:49:09;;;;;;;52.43;35.63;;;9.50;99.90;;;;;;5014369;28;20176;-64
2021/04/21 03:51:36;;;;;;;52.50;37.40;;;9.50;99.90;;;;;;4999342;28;20567;-64
2021/04/21 03:54:03;;;;;;;59.33;39.03;;;9.50;99.90;;;;;;4993707;28;20205;-64
2021/04/21 03:56:30;;;;;;;53.00;37.63;;;9.50;99.90;;;;;;5010076;28;20523;-64
2021/04/21 03:58:58;;;;;;;55.97;36.97;;;9.60;99.90;;;;;;5005858;28;20614;-63
2021/04/21 04:01:25;;;;;;;55.23;35.40;;;9.60;99.90;;;;;;4994001;28;20196;-65
2021/04/21 04:04:11;;;;;;;54.20;38.27;;;9.50;99.90;;;;;;4995345;28;20199;-64
2021/04/21 04:06:44;;;;;;;55.50;36.20;;;9.50;99.90;;;;;;4994163;28;20184;-65
2021/04/21 04:09:11;;;;;;;53.10;35.90;;;9.50;99.90;;;;;;5002841;28;20168;-65
2021/04/21 04:11:50;;;;;;;59.83;37.03;;;9.50;99.90;;;;;;5012791;28;20218;-64
2021/04/21 04:14:20;;;;;;;52.87;35.10;;;9.50;99.90;;;;;;5004166;28;20278;-65
2021/04/21 04:16:47;;;;;;;55.60;36.80;;;9.40;99.90;;;;;;4993377;28;20177;-64
2021/04/21 04:19:13;;;;;;;55.40;36.27;;;9.30;99.90;;;;;;5001714;28;20183;-64
2021/04/21 04:21:42;;;;;;;55.57;37.13;;;9.30;99.90;;;;;;5013010;28;20211;-64
2021/04/21 04:24:11;;;;;;;58.23;37.13;;;9.40;99.90;;;;;;5005647;28;20204;-65
2021/04/21 04:26:40;;;;;;;59.73;38.80;;;9.30;99.90;;;;;;4993842;28;20173;-64
2021/04/21 04:29:06;;;;;;;56.73;38.40;;;9.30;99.90;;;;;;5006684;28;20242;-65
2021/04/21 04:31:35;;;;;;;62.60;38.37;;;9.30;99.90;;;;;;4995553;28;20181;-65
2021/04/21 04:34:06;;;;;;;61.80;41.77;;;9.30;99.90;;;;;;4996275;28;20197;-64
2021/04/21 04:36:34;;;;;;;64.37;41.70;;;9.30;99.90;;;;;;5006893;28;20214;-65
2021/04/21 04:39:01;;;;;;;64.63;42.57;;;9.30;99.90;;;;;;5002243;28;20177;-65
2021/04/21 04:41:27;;;;;;;66.50;44.67;;;9.40;99.90;;;;;;4997701;28;20216;-64
2021/04/21 04:43:56;;;;;;;70.63;48.03;;;9.40;99.90;;;;;;5013291;28;20223;-64
2021/04/21 04:46:27;;;;;;;60.97;42.80;;;9.50;99.90;;;;;;5011468;28;20180;-64
2021/04/21 04:49:05;;;;;;;70.43;44.60;;;9.60;99.90;;;;;;5013297;28;20168;-64
2021/04/21 04:51:36;;;;;;;59.03;41.70;;;9.60;99.90;;;;;;4995104;28;20184;-64
2021/04/21 04:54:04;;;;;;;60.47;40.97;;;9.70;99.90;;;;;;4993464;28;20196;-64
2021/04/21 04:56:33;;;;;;;69.23;43.60;;;9.70;99.90;;;;;;5009056;28;20179;-64
2021/04/21 04:59:05;;;;;;;63.13;43.63;;;9.70;99.90;;;;;;5012934;28;20216;-65
2021/04/21 05:01:57;;;;;;;63.30;42.37;;;9.80;99.90;;;;;;4995287;28;20200;-66
2021/04/21 05:04:52;;;;;;;59.67;41.47;;;9.90;99.90;;;;;;4992752;28;20204;-68
2021/04/21 05:07:25;;;;;;;63.17;41.23;;;10.00;99.90;;;;;;4971554;28;20194;-66
2021/04/21 05:09:53;;;;;;;53.13;37.33;;;10.20;99.90;;;;;;4976380;28;20174;-65
2021/04/21 05:12:21;;;;;;;59.07;39.90;;;10.30;99.90;;;;;;5012557;28;20667;-64
2021/04/21 05:14:52;;;;;;;49.17;35.07;;;10.40;99.90;;;;;;5003968;28;20567;-65
2021/04/21 05:18:06;;;;;;;50.60;33.30;;;10.50;99.90;;;;;;4992861;28;20256;-64
2021/04/21 05:21:10;;;;;;;57.73;34.23;;;10.60;99.90;;;;;;5005299;28;20229;-65
2021/04/21 05:24:06;;;;;;;62.57;43.50;;;10.60;99.90;;;;;;5010781;28;20180;-65
2021/04/21 05:27:14;;;;;;;65.87;45.70;;;10.60;99.90;;;;;;5007819;28;20188;-65
2021/04/21 05:30:05;;;;;;;64.33;44.50;;;10.60;99.90;;;;;;4992899;28;20180;-66
2021/04/21 05:32:52;;;;;;;67.53;43.20;;;10.40;99.90;;;;;;5004182;28;20192;-66
2021/04/21 05:36:15;;;;;;;67.20;48.27;;;10.40;99.90;;;;;;5011429;28;20275;-66
2021/04/21 05:39:17;;;;;;;72.67;48.27;;;10.40;99.90;;;;;;4932432;29;20214;-65
2021/04/21 05:41:57;;;;;;;66.43;44.87;;;10.50;99.90;;;;;;4929910;29;20225;-65
2021/04/21 05:45:00;;;;;;;65.57;44.90;;;10.70;99.90;;;;;;4988214;28;20246;-64
2021/04/21 05:47:28;;;;;;;69.70;45.27;;;10.70;99.90;;;;;;4992457;28;20184;-65
2021/04/21 05:50:32;;;;;;;63.93;44.73;;;10.70;99.90;;;;;;4999950;28;20172;-65
2021/04/21 05:53:35;;;;;;;61.87;43.73;;;10.80;99.90;;;;;;4973455;28;20181;-65
2021/04/21 05:56:22;;;;;;;61.00;43.70;;;11.00;99.90;;;;;;5005888;28;20664;-65
2021/04/21 05:59:25;;;;;;;61.37;43.17;;;11.10;99.90;;;;;;5011860;28;20239;-64
2021/04/21 06:01:53;;;;;;;60.87;42.10;;;11.20;99.90;;;;;;4972362;28;20604;-65
2021/04/21 06:04:19;;;;;;;59.13;41.33;;;11.30;99.90;;;;;;4975944;28;20663;-64
2021/04/21 06:06:44;;;;;;;62.10;43.97;;;11.20;99.90;;;;;;5010711;28;20204;-64
2021/04/21 06:09:11;;;;;;;69.37;44.07;;;11.10;99.90;;;;;;5010027;28;20241;-65
2021/04/21 06:11:37;;;;;;;60.30;42.57;;;11.10;99.90;;;;;;5011556;28;20706;-64
2021/04/21 06:14:05;;;;;;;63.93;43.10;;;11.10;99.90;;;;;;4995746;28;20200;-65
2021/04/21 06:16:32;;;;;;;60.07;43.00;;;11.20;99.90;;;;;;4991548;28;20549;-65
2021/04/21 06:19:04;;;;;;;60.37;43.23;;;11.30;99.90;;;;;;5006346;28;20215;-65
2021/04/21 06:21:36;;;;;;;69.73;45.60;;;11.40;99.90;;;;;;5011367;28;20207;-65
2021/04/21 06:24:16;;;;;;;60.87;43.70;;;11.30;99.90;;;;;;5000569;28;20303;-64
2021/04/21 06:26:42;;;;;;;57.73;41.40;;;11.30;99.90;;;;;;4992237;28;20169;-65
2021/04/21 06:29:09;;;;;;;67.10;43.50;;;11.20;99.90;;;;;;5006211;28;20184;-65
2021/04/21 06:31:39;;;;;;;60.40;43.57;;;11.20;99.90;;;;;;5011564;28;20172;-65
2021/04/21 06:34:06;;;;;;;63.70;43.43;;;11.20;99.90;;;;;;4997490;28;20201;-65
2021/04/21 06:36:41;;;;;;;74.00;46.33;;;11.20;99.90;;;;;;4991952;28;20539;-65
2021/04/21 06:39:08;;;;;;;59.23;43.10;;;11.30;99.90;;;;;;4973054;28;20599;-66
2021/04/21 06:41:34;;;;;;;58.90;42.33;;;11.50;99.90;;;;;;4994151;28;20673;-66
2021/04/21 06:44:00;;;;;;;66.63;44.00;;;11.70;99.90;;;;;;5011857;28;20196;-65
2021/04/21 06:46:26;;;;;;;58.27;43.13;;;11.80;99.90;;;;;;5001370;28;20183;-65
2021/04/21 06:48:57;;;;;;;62.13;42.47;;;11.80;99.90;;;;;;4991941;28;20169;-64
2021/04/21 06:51:26;;;;;;;65.27;42.70;;;11.60;99.90;;;;;;4999657;28;20799;-64
2021/04/21 06:53:53;;;;;;;61.70;44.23;;;11.60;99.90;;;;;;5009404;28;20233;-64
2021/04/21 06:56:30;;;;;;;61.87;43.80;;;11.60;99.90;;;;;;5011430;28;20184;-66
2021/04/21 06:58:56;;;;;;;65.73;42.37;;;11.60;99.90;;;;;;5007236;28;20271;-63
2021/04/21 07:01:25;;;;;;;63.97;43.23;;;11.60;99.90;;;;;;4991371;28;20275;-64
2021/04/21 07:03:52;;;;;;;57.33;42.47;;;11.70;99.90;;;;;;4994427;28;20617;-64
2021/04/21 07:06:19;;;;;;;59.77;42.07;;;11.60;99.90;;;;;;5011433;28;20172;-64
2021/04/21 07:08:45;;;;;;;55.90;41.90;;;11.90;99.90;;;;;;5009372;28;20169;-64
2021/04/21 07:11:11;;;;;;;67.57;44.87;;;12.10;99.90;;;;;;4991115;28;20542;-64
2021/04/21 07:13:37;;;;;;;66.30;43.63;;;12.20;99.90;;;;;;4991655;28;20169;-65
2021/04/21 07:16:07;;;;;;;63.00;44.17;;;12.40;99.90;;;;;;5010848;28;20176;-65
2021/04/21 07:18:37;;;;;;;63.20;43.63;;;12.50;99.90;;;;;;5010542;28;20172;-65
2021/04/21 07:21:05;;;;;;;64.50;43.47;;;12.50;99.90;;;;;;4991134;28;20209;-65
2021/04/21 07:23:33;;;;;;;64.57;44.10;;;12.50;99.90;;;;;;4995623;28;20180;-65
2021/04/21 07:25:59;;;;;;;59.27;42.30;;;12.70;99.90;;;;;;5011168;28;20176;-65
2021/04/21 07:28:25;;;;;;;57.73;42.17;;;12.90;99.90;;;;;;5007529;28;20534;-65
2021/04/21 07:30:53;;;;;;;55.73;38.93;;;13.40;99.90;;;;;;4994271;28;20176;-65
2021/04/21 07:33:46;;;;;;;55.60;39.33;;;14.00;99.90;;;;;;4996156;28;20671;-64
2021/04/21 07:36:20;;;;;;;54.47;37.43;;;14.50;99.90;;;;;;5014417;28;20650;-64
2021/04/21 07:38:52;;;;;;;48.90;38.50;;;14.90;99.90;;;;;;5009334;28;20328;-64
2021/04/21 07:41:37;;;;;;;49.73;38.77;;;15.30;99.90;;;;;;5000505;28;20203;-65
2021/04/21 07:44:05;;;;;;;51.90;36.17;;;15.90;99.90;;;;;;5007301;28;20216;-65
2021/04/21 07:46:31;;;;;;;50.47;33.63;;;16.40;99.90;;;;;;4994707;28;20169;-64
2021/04/21 07:48:57;;;;;;;43.10;34.47;;;16.90;99.90;;;;;;4999754;28;20180;-65
2021/04/21 07:51:26;;;;;;;44.77;35.10;;;17.10;99.90;;;;;;5013812;28;20176;-65
2021/04/21 07:54:04;;;;;;;47.63;35.77;;;17.50;99.90;;;;;;5002978;28;20524;-65
2021/04/21 07:56:35;;;;;;;49.77;35.33;;;17.90;99.90;;;;;;4994337;28;20177;-65
2021/04/21 07:59:15;;;;;;;44.90;33.73;;;18.10;99.90;;;;;;4996798;28;20181;-64
2021/04/21 08:01:41;;;;;;;42.30;32.47;;;18.40;99.90;;;;;;5000320;28;20204;-63
2021/04/21 08:04:46;;;;;;;43.50;33.43;;;18.60;99.90;;;;;;4995054;28;20552;-64
2021/04/21 08:07:12;;;;;;;50.10;32.83;;;18.50;99.90;;;;;;4990907;28;20192;-65
2021/04/21 08:09:50;;;;;;;44.15;34.33;;;18.50;99.90;;;;;;4999939;28;20238;-64
2021/04/21 08:12:16;;;;;;;40.63;32.95;;;18.50;99.90;;;;;;4994061;28;20249;-64
2021/04/21 08:14:45;;;;;;;37.57;29.53;;;18.60;99.90;;;;;;4993053;28;20189;-64
2021/04/21 08:17:12;;;;;;;47.37;33.43;;;18.60;99.90;;;;;;4993422;28;20177;-64
2021/04/21 08:19:40;;;;;;;41.30;31.13;;;18.50;99.90;;;;;;4994183;28;20255;-64
2021/04/21 08:22:07;;;;;;;40.90;30.90;;;18.50;99.90;;;;;;4993749;28;20204;-65
2021/04/21 08:24:44;;;;;;;38.00;29.40;;;18.50;99.90;;;;;;4993747;28;20224;-64
2021/04/21 08:27:14;;;;;;;39.60;29.87;;;18.50;99.90;;;;;;4994225;28;20642;-64
2021/04/21 08:29:41;;;;;;;40.75;28.45;;;19.00;99.90;;;;;;4993967;28;20215;-64
2021/04/21 08:32:08;;;;;;;39.45;30.45;;;19.50;99.90;;;;;;4992434;28;20653;-65
2021/04/21 08:34:34;;;;;;;37.42;29.90;;;20.00;99.90;;;;;;4993692;28;20283;-65
2021/04/21 08:37:00;;;;;;;36.08;30.42;;;20.50;99.90;;;;;;4993881;28;20207;-63
2021/04/21 08:39:25;;;;;;;34.15;28.13;;;20.50;99.90;;;;;;4993155;28;20176;-65
2021/04/21 08:41:56;;;;;;;35.88;29.20;;;20.60;99.90;;;;;;4993423;28;20204;-65
2021/04/21 08:44:23;;;;;;;83.20;47.22;;;20.60;99.90;;;;;;4993563;28;20192;-65
2021/04/21 08:46:50;;;;;;;35.95;28.83;;;20.80;99.90;;;;;;4993595;28;20223;-65
2021/04/21 08:49:16;;;;;;;36.72;28.10;;;20.80;99.90;;;;;;4992329;28;20235;-64
2021/04/21 08:51:42;;;;;;;35.10;26.67;;;20.80;99.90;;;;;;4993548;28;20173;-65
2021/04/21 08:54:12;;;;;;;29.17;23.20;;;20.90;99.90;;;;;;4999721;28;20254;-65
2021/04/21 08:56:40;;;;;;;28.33;23.20;;;20.20;99.90;;;;;;4997362;28;20240;-65
2021/04/21 08:59:11;;;;;;;27.15;22.80;;;20.10;99.90;;;;;;4993354;28;20181;-63
2021/04/21 09:01:37;;;;;;;31.13;25.13;;;20.10;99.90;;;;;;4993025;28;20205;-64
2021/04/21 09:04:03;;;;;;;34.58;26.17;;;20.20;99.90;;;;;;4993333;28;20204;-64
2021/04/21 09:06:29;;;;;;;31.58;26.80;;;20.30;99.90;;;;;;4993274;28;20169;-64
2021/04/21 09:08:56;;;;;;;33.22;24.50;;;20.50;99.90;;;;;;4993359;28;20665;-63
2021/04/21 09:11:23;;;;;;;30.65;24.45;;;20.80;99.90;;;;;;4992853;28;20268;-64
2021/04/21 09:13:49;;;;;;;30.20;23.17;;;20.70;99.90;;;;;;5004094;28;20265;-64
2021/04/21 09:16:18;;;;;;;32.78;24.58;;;20.50;99.90;;;;;;5013016;28;20172;-64
2021/04/21 09:18:44;;;;;;;31.83;23.80;;;20.00;99.90;;;;;;5002407;28;20184;-64
2021/04/21 09:21:18;;;;;;;27.02;22.65;;;20.20;99.90;;;;;;4992981;28;20204;-64
2021/04/21 09:23:46;;;;;;;32.88;24.05;;;20.20;99.90;;;;;;5025621;22;20207;-64
2021/04/21 09:26:19;;;;;;;29.10;24.80;;;20.10;99.90;;;;;;5011990;28;20196;-63
2021/04/21 09:28:46;;;;;;;29.70;23.88;;;20.20;99.90;;;;;;5021171;28;20365;-63
2021/04/21 09:31:21;;;;;;;33.78;24.35;;;20.40;99.90;;;;;;5031610;28;20175;-64
2021/04/21 09:33:47;;;;;;;29.67;23.33;;;20.50;99.90;;;;;;5022707;28;20171;-64
2021/04/21 09:36:32;;;;;;;31.30;24.17;;;20.20;99.90;;;;;;5010984;28;20472;-63
2021/04/21 09:39:17;;;;;;;28.17;23.00;;;20.00;99.90;;;;;;5011979;28;20203;-63
2021/04/21 09:41:45;;;;;;;35.40;27.20;;;19.90;99.90;;;;;;5011595;28;20208;-63
2021/04/21 09:44:13;;;;;;;41.10;30.75;;;19.80;99.90;;;;;;5012061;28;20195;-63
2021/04/21 09:46:40;;;;;;;37.75;30.25;;;19.70;99.90;;;;;;5011387;28;20318;-63
2021/04/21 09:49:26;;;;;;;38.60;31.08;;;19.60;99.90;;;;;;5012126;28;20168;-64
2021/04/21 09:51:52;;;;;;;40.77;30.13;;;19.30;99.90;;;;;;5010985;28;20183;-63
2021/04/21 09:54:31;;;;;;;42.97;32.73;;;19.00;99.90;;;;;;5011924;28;20195;-64
2021/04/21 09:57:31;;;;;;;41.45;31.30;;;18.70;99.90;;;;;;5011707;28;20187;-64
2021/04/21 10:00:07;;;;;;;37.30;30.47;;;18.50;99.90;;;;;;5000870;28;20211;-64
2021/04/21 10:02:42;;;;;;;40.13;31.37;;;18.50;99.90;;;;;;5007692;28;20561;-64
2021/04/21 10:05:27;;;;;;;37.03;28.93;;;18.40;99.90;;;;;;4992289;28;20227;-63
2021/04/21 10:08:19;;;;;;;36.53;27.98;;;18.80;99.90;;;;;;4992317;28;20184;-64
2021/04/21 10:10:47;;;;;;;29.00;22.20;;;19.60;99.90;;;;;;5008995;28;20594;-64
2021/04/21 10:13:12;;;;;;;31.20;23.95;;;20.50;99.90;;;;;;5011725;28;20180;-63
2021/04/21 10:15:38;;;;;;;25.35;21.55;;;20.60;99.90;;;;;;5011948;28;20198;-65
2021/04/21 10:18:05;;;;;;;26.58;22.60;;;21.00;99.90;;;;;;5010997;28;20295;-64
2021/04/21 10:20:31;;;;;;;29.13;24.20;;;21.00;99.90;;;;;;5011466;28;20176;-64
2021/04/21 10:22:57;;;;;;;31.42;24.92;;;20.70;99.90;;;;;;5011855;28;20174;-64
2021/04/21 10:25:23;;;;;;;28.85;23.90;;;21.00;99.90;;;;;;5010395;28;20227;-64
2021/04/21 10:27:49;;;;;;;31.10;24.85;;;21.00;99.90;;;;;;5011831;28;20172;-65
2021/04/21 10:30:16;;;;;;;30.35;24.90;;;20.90;99.90;;;;;;5011283;28;20169;-64
2021/04/21 10:32:41;;;;;;;30.55;23.55;;;20.50;99.90;;;;;;5011499;28;20184;-64
2021/04/21 10:35:08;;;;;;;31.20;26.27;;;20.00;99.90;;;;;;5011467;28;20188;-63
2021/04/21 10:37:35;;;;;;;34.95;25.58;;;19.60;99.90;;;;;;5011790;28;20263;-63
2021/04/21 10:40:00;;;;;;;30.45;24.70;;;19.40;99.90;;;;;;5011296;28;20255;-63
2021/04/21 10:42:26;;;;;;;34.38;25.10;;;19.70;99.90;;;;;;5011548;28;20365;-64
2021/04/21 10:45:12;;;;;;;28.58;23.60;;;20.10;99.90;;;;;;5011125;28;20223;-64
2021/04/21 10:47:47;;;;;;;28.50;24.10;;;20.50;99.90;;;;;;5011639;28;20322;-63
2021/04/21 10:50:32;;;;;;;30.50;25.08;;;20.60;99.90;;;;;;5011159;28;20213;-64
2021/04/21 10:52:58;;;;;;;32.58;23.23;;;20.90;99.90;;;;;;5011464;28;20176;-63
2021/04/21 10:55:38;;;;;;;29.67;24.00;;;21.30;99.90;;;;;;5011421;28;20181;-64
2021/04/21 10:58:10;;;;;;;32.20;24.27;;;21.50;99.90;;;;;;5011415;28;20172;-64
2021/04/21 11:00:40;;;;;;;26.30;21.90;;;21.70;99.90;;;;;;5010930;28;20172;-64
2021/04/21 11:03:10;;;;;;;28.45;21.30;;;22.20;99.90;;;;;;5012633;28;20172;-64
2021/04/21 11:05:51;;;;;;;33.63;24.73;;;22.90;99.90;;;;;;5015166;28;20188;-64
2021/04/21 11:08:21;;;;;;;29.15;22.88;;;23.40;99.90;;;;;;5015077;28;20203;-64
2021/04/21 11:11:03;;;;;;;26.35;22.75;;;24.00;99.90;;;;;;5013510;28;20176;-63
2021/04/21 11:13:35;;;;;;;26.33;23.23;;;24.70;99.90;;;;;;5014949;28;20552;-66
2021/04/21 11:16:05;;;;;;;25.75;22.13;;;25.00;99.90;;;;;;5014811;28;20691;-64
2021/04/21 11:18:32;;;;;;;24.70;21.33;;;24.90;99.90;;;;;;5014192;28;20526;-64
2021/04/21 11:21:11;;;;;;;27.98;21.67;;;25.50;99.90;;;;;;5013960;28;20676;-64
2021/04/21 11:24:02;;;;;;;20.73;17.73;;;25.70;99.90;;;;;;5014955;28;20247;-64
2021/04/21 11:26:31;;;;;;;20.38;16.17;;;25.60;99.90;;;;;;5013518;28;20541;-64
2021/04/21 11:29:01;;;;;;;23.15;18.42;;;25.60;99.90;;;;;;5014699;28;20176;-65
2021/04/21 11:31:39;;;;;;;25.30;16.75;;;25.90;99.90;;;;;;5012238;28;20180;-64
2021/04/21 11:34:27;;;;;;;22.40;18.50;;;25.90;99.90;;;;;;5014677;28;20194;-64
2021/04/21 11:37:06;;;;;;;24.05;18.95;;;25.90;99.90;;;;;;5009849;28;20200;-65
2021/04/21 11:42:31;;;;;;;21.10;15.45;;;25.30;98.80;;;;;;5014219;28;20218;-65
2021/04/21 11:45:03;;;;;;;16.55;12.77;;;24.80;99.00;;;;;;5014686;28;20192;-64
2021/04/21 11:47:42;;;;;;;13.07;10.93;;;24.30;97.10;;;;;;5014455;28;20196;-64
2021/04/21 11:50:23;;;;;;;11.68;9.73;;;23.60;93.60;;;;;;5014261;28;20227;-64
2021/04/21 11:53:07;;;;;;;14.20;10.30;;;22.80;92.70;;;;;;4994778;28;20203;-65
2021/04/21 11:55:44;;;;;;;15.52;10.45;;;22.70;94.30;;;;;;4994640;28;20284;-64
2021/04/21 11:58:28;;;;;;;13.43;10.07;;;22.80;94.00;;;;;;4996453;28;20203;-64
2021/04/21 12:01:10;;;;;;;13.40;11.00;;;23.30;94.00;;;;;;5013795;28;20203;-65
2021/04/21 12:03:40;;;;;;;12.82;10.07;;;23.80;95.70;;;;;;5014067;28;20319;-65
2021/04/21 12:06:13;;;;;;;11.95;9.55;;;24.40;93.60;;;;;;5013983;28;20218;-65
2021/04/21 12:08:47;;;;;;;16.17;10.07;;;24.40;91.00;;;;;;5013255;28;20187;-65
2021/04/21 12:11:13;;;;;;;14.07;11.30;;;24.60;91.60;;;;;;5013200;28;20168;-65
2021/04/21 12:13:47;;;;;;;14.68;10.07;;;24.50;91.10;;;;;;5013597;28;20191;-65
2021/04/21 12:16:15;;;;;;;12.85;9.65;;;24.80;90.40;;;;;;5013093;28;20250;-65
2021/04/21 12:18:59;;;;;;;11.07;9.38;;;24.80;90.80;;;;;;5013400;28;20184;-64
2021/04/21 12:21:27;;;;;;;12.85;8.70;;;24.20;87.10;;;;;;5012923;28;20203;-65
2021/04/21 12:24:01;;;;;;;12.30;9.00;;;24.00;90.30;;;;;;5012977;28;20187;-64
2021/04/21 12:26:38;;;;;;;10.35;9.20;;;24.20;84.60;;;;;;5013250;28;20183;-65
2021/04/21 12:29:09;;;;;;;12.52;9.05;;;24.30;85.30;;;;;;5013252;28;20184;-65
2021/04/21 12:31:35;;;;;;;10.82;9.15;;;24.10;88.90;;;;;;5013092;28;20171;-65
2021/04/21 12:34:04;;;;;;;12.93;9.20;;;24.10;86.40;;;;;;5013306;28;20184;-65
2021/04/21 12:36:32;;;;;;;11.88;8.32;;;23.80;87.70;;;;;;5013256;28;20292;-65
2021/04/21 12:39:06;;;;;;;14.82;9.55;;;23.70;85.90;;;;;;5013279;28;20176;-65
2021/04/21 12:41:33;;;;;;;10.73;9.13;;;23.60;86.70;;;;;;5012163;28;20242;-64
2021/04/21 12:44:24;;;;;;;9.93;8.95;;;23.70;91.10;;;;;;5013345;28;20199;-64
2021/04/21 12:47:10;;;;;;;9.95;8.50;;;23.90;90.40;;;;;;5013141;28;20188;-65
2021/04/21 12:49:38;;;;;;;10.93;9.07;;;23.80;90.10;;;;;;5013295;28;20168;-65
2021/04/21 12:52:06;;;;;;;10.57;9.18;;;23.50;89.90;;;;;;5013514;28;20180;-64
2021/04/21 12:54:34;;;;;;;10.77;9.15;;;23.20;88.80;;;;;;5012650;28;20206;-64
2021/04/21 12:57:00;;;;;;;9.57;8.48;;;23.00;90.00;;;;;;5009552;28;20180;-64
2021/04/21 12:59:26;;;;;;;13.27;8.75;;;23.00;91.40;;;;;;5012550;28;20188;-65
2021/04/21 13:01:52;;;;;;;10.65;8.50;;;23.00;87.90;;;;;;5012537;28;20207;-65
2021/04/21 13:04:19;;;;;;;12.27;9.25;;;22.90;91.60;;;;;;5012390;28;20196;-65
2021/04/21 13:06:49;;;;;;;11.05;9.20;;;23.20;91.00;;;;;;5012817;28;20310;-65